sensor_id;sensor_type;location;lat;lon;timestamp;P1;durP1;ratioP1;P2;durP2;ratioP2
2610;SDS011;5612;51.134;17.058;2022-08-11T00:01:10;9.60;;;6.10;;
2610;SDS011;5612;51.134;17.058;2022-08-11T00:03:42;8.23;;;6.40;;
2610;SDS011;5612;51.134;17.058;2022-08-11T00:06:14;6.87;;;6.23;;
2610;SDS011;5612;51.134;17.058;2022-08-11T00:08:51;6.30;;;5.80;;
2610;SDS011;5612;51.134;17.058;2022-08-11T00:11:21;6.70;;;6.10;;
2610;SDS011;5612;51.134;17.058;2022-08-11T00:13:58;7.73;;;7.13;;
2610;SDS011;5612;51.134;17.058;2022-08-11T00:16:27;6.77;;;6.27;;
2610;SDS011;5612;51.134;17.058;2022-08-11T00:18:57;6.40;;;5.97;;
2610;SDS011;5612;51.134;17.058;2022-08-11T00:21:28;7.97;;;7.23;;
2610;SDS011;5612;51.134;17.058;2022-08-11T00:24:17;6.90;;;6.30;;
2610;SDS011;5612;51.134;17.058;2022-08-11T00:26:48;7.20;;;6.47;;
2610;SDS011;5612;51.134;17.058;2022-08-11T00:29:21;7.20;;;6.60;;
2610;SDS011;5612;51.134;17.058;2022-08-11T00:31:50;7.30;;;6.70;;
2610;SDS011;5612;51.134;17.058;2022-08-11T00:34:22;7.10;;;6.50;;
2610;SDS011;5612;51.134;17.058;2022-08-11T00:36:56;7.40;;;6.70;;
2610;SDS011;5612;51.134;17.058;2022-08-11T00:39:29;7.13;;;6.60;;
2610;SDS011;5612;51.134;17.058;2022-08-11T00:42:06;8.40;;;7.50;;
2610;SDS011;5612;51.134;17.058;2022-08-11T00:44:44;7.43;;;6.73;;
2610;SDS011;5612;51.134;17.058;2022-08-11T00:47:26;6.90;;;6.30;;
2610;SDS011;5612;51.134;17.058;2022-08-11T00:50:06;7.23;;;6.63;;
2610;SDS011;5612;51.134;17.058;2022-08-11T00:56:10;7.43;;;6.83;;
2610;SDS011;5612;51.134;17.058;2022-08-11T00:59:22;6.93;;;6.30;;
2610;SDS011;5612;51.134;17.058;2022-08-11T01:02:17;7.23;;;6.70;;
2610;SDS011;5612;51.134;17.058;2022-08-11T01:08:27;6.33;;;5.80;;
2610;SDS011;5612;51.134;17.058;2022-08-11T01:11:23;6.67;;;6.17;;
2610;SDS011;5612;51.134;17.058;2022-08-11T01:14:29;8.93;;;6.70;;
2610;SDS011;5612;51.134;17.058;2022-08-11T01:17:41;6.83;;;6.37;;
2610;SDS011;5612;51.134;17.058;2022-08-11T01:24:16;6.73;;;6.13;;
2610;SDS011;5612;51.134;17.058;2022-08-11T01:30:40;9.87;;;6.20;;
2610;SDS011;5612;51.134;17.058;2022-08-11T01:36:36;8.03;;;7.43;;
2610;SDS011;5612;51.134;17.058;2022-08-11T01:39:50;6.60;;;6.10;;
2610;SDS011;5612;51.134;17.058;2022-08-11T01:46:12;6.67;;;6.07;;
2610;SDS011;5612;51.134;17.058;2022-08-11T01:48:55;7.53;;;6.93;;
2610;SDS011;5612;51.134;17.058;2022-08-11T01:52:08;7.37;;;6.77;;
2610;SDS011;5612;51.134;17.058;2022-08-11T01:54:58;6.27;;;5.77;;
2610;SDS011;5612;51.134;17.058;2022-08-11T01:57:41;7.37;;;6.00;;
2610;SDS011;5612;51.134;17.058;2022-08-11T02:00:17;6.87;;;6.37;;
2610;SDS011;5612;51.134;17.058;2022-08-11T02:02:51;7.47;;;6.23;;
2610;SDS011;5612;51.134;17.058;2022-08-11T02:05:35;6.53;;;6.10;;
2610;SDS011;5612;51.134;17.058;2022-08-11T02:08:34;6.63;;;6.13;;
2610;SDS011;5612;51.134;17.058;2022-08-11T02:11:21;7.37;;;6.70;;
2610;SDS011;5612;51.134;17.058;2022-08-11T02:14:09;7.00;;;6.40;;
2610;SDS011;5612;51.134;17.058;2022-08-11T02:17:04;8.67;;;6.90;;
2610;SDS011;5612;51.134;17.058;2022-08-11T02:19:48;6.77;;;6.17;;
2610;SDS011;5612;51.134;17.058;2022-08-11T02:22:39;6.53;;;5.90;;
2610;SDS011;5612;51.134;17.058;2022-08-11T02:25:42;7.10;;;6.60;;
2610;SDS011;5612;51.134;17.058;2022-08-11T02:28:24;7.00;;;6.50;;
2610;SDS011;5612;51.134;17.058;2022-08-11T02:31:06;6.50;;;6.00;;
2610;SDS011;5612;51.134;17.058;2022-08-11T02:34:30;7.50;;;6.70;;
2610;SDS011;5612;51.134;17.058;2022-08-11T02:37:19;6.90;;;6.17;;
2610;SDS011;5612;51.134;17.058;2022-08-11T02:40:01;6.60;;;6.00;;
2610;SDS011;5612;51.134;17.058;2022-08-11T02:42:59;6.67;;;6.13;;
2610;SDS011;5612;51.134;17.058;2022-08-11T02:45:40;6.13;;;5.73;;
2610;SDS011;5612;51.134;17.058;2022-08-11T02:48:28;8.87;;;7.20;;
2610;SDS011;5612;51.134;17.058;2022-08-11T02:51:36;6.40;;;6.00;;
2610;SDS011;5612;51.134;17.058;2022-08-11T02:54:14;7.17;;;6.50;;
2610;SDS011;5612;51.134;17.058;2022-08-11T02:56:50;6.53;;;6.03;;
2610;SDS011;5612;51.134;17.058;2022-08-11T02:59:32;6.97;;;6.37;;
2610;SDS011;5612;51.134;17.058;2022-08-11T03:02:27;6.37;;;5.87;;
2610;SDS011;5612;51.134;17.058;2022-08-11T03:05:05;5.70;;;5.27;;
2610;SDS011;5612;51.134;17.058;2022-08-11T03:07:50;5.90;;;5.50;;
2610;SDS011;5612;51.134;17.058;2022-08-11T03:10:47;6.77;;;6.17;;
2610;SDS011;5612;51.134;17.058;2022-08-11T03:13:41;6.87;;;6.30;;
2610;SDS011;5612;51.134;17.058;2022-08-11T03:16:36;5.30;;;4.90;;
2610;SDS011;5612;51.134;17.058;2022-08-11T03:19:20;6.70;;;6.20;;
2610;SDS011;5612;51.134;17.058;2022-08-11T03:22:00;5.70;;;5.30;;
2610;SDS011;5612;51.134;17.058;2022-08-11T03:24:48;6.20;;;5.80;;
2610;SDS011;5612;51.134;17.058;2022-08-11T03:27:27;6.37;;;5.97;;
2610;SDS011;5612;51.134;17.058;2022-08-11T03:30:05;6.03;;;5.50;;
2610;SDS011;5612;51.134;17.058;2022-08-11T03:32:45;5.90;;;5.50;;
2610;SDS011;5612;51.134;17.058;2022-08-11T03:35:36;6.20;;;5.70;;
2610;SDS011;5612;51.134;17.058;2022-08-11T03:38:11;5.27;;;4.77;;
2610;SDS011;5612;51.134;17.058;2022-08-11T03:40:47;6.80;;;6.30;;
2610;SDS011;5612;51.134;17.058;2022-08-11T03:44:05;5.70;;;5.30;;
2610;SDS011;5612;51.134;17.058;2022-08-11T03:46:45;5.47;;;4.97;;
2610;SDS011;5612;51.134;17.058;2022-08-11T03:49:35;6.03;;;5.57;;
2610;SDS011;5612;51.134;17.058;2022-08-11T03:52:22;5.80;;;5.23;;
2610;SDS011;5612;51.134;17.058;2022-08-11T03:55:03;7.40;;;6.17;;
2610;SDS011;5612;51.134;17.058;2022-08-11T03:57:57;5.97;;;5.57;;
2610;SDS011;5612;51.134;17.058;2022-08-11T04:04:17;7.60;;;6.00;;
2610;SDS011;5612;51.134;17.058;2022-08-11T04:13:49;6.33;;;5.73;;
2610;SDS011;5612;51.134;17.058;2022-08-11T04:17:15;8.80;;;6.00;;
2610;SDS011;5612;51.134;17.058;2022-08-11T04:23:17;8.83;;;5.93;;
2610;SDS011;5612;51.134;17.058;2022-08-11T04:26:33;7.00;;;6.27;;
2610;SDS011;5612;51.134;17.058;2022-08-11T04:36:01;5.67;;;5.27;;
2610;SDS011;5612;51.134;17.058;2022-08-11T04:38:57;7.30;;;6.20;;
2610;SDS011;5612;51.134;17.058;2022-08-11T04:41:55;6.80;;;6.20;;
2610;SDS011;5612;51.134;17.058;2022-08-11T04:45:37;10.27;;;5.90;;
2610;SDS011;5612;51.134;17.058;2022-08-11T04:48:22;6.23;;;5.70;;
2610;SDS011;5612;51.134;17.058;2022-08-11T04:51:41;6.57;;;6.07;;
2610;SDS011;5612;51.134;17.058;2022-08-11T04:55:14;6.27;;;5.77;;
2610;SDS011;5612;51.134;17.058;2022-08-11T04:58:16;7.03;;;6.33;;
2610;SDS011;5612;51.134;17.058;2022-08-11T05:01:14;7.00;;;5.67;;
2610;SDS011;5612;51.134;17.058;2022-08-11T05:04:20;6.80;;;6.10;;
2610;SDS011;5612;51.134;17.058;2022-08-11T05:11:02;6.23;;;5.37;;
2610;SDS011;5612;51.134;17.058;2022-08-11T05:13:45;6.60;;;5.70;;
2610;SDS011;5612;51.134;17.058;2022-08-11T05:16:47;5.90;;;5.00;;
2610;SDS011;5612;51.134;17.058;2022-08-11T05:19:58;6.03;;;5.53;;
2610;SDS011;5612;51.134;17.058;2022-08-11T05:22:46;5.33;;;4.93;;
2610;SDS011;5612;51.134;17.058;2022-08-11T05:25:34;5.83;;;5.40;;
2610;SDS011;5612;51.134;17.058;2022-08-11T05:28:45;5.00;;;4.57;;
2610;SDS011;5612;51.134;17.058;2022-08-11T05:31:48;5.27;;;4.77;;
2610;SDS011;5612;51.134;17.058;2022-08-11T05:34:43;5.03;;;4.63;;
2610;SDS011;5612;51.134;17.058;2022-08-11T05:37:19;4.80;;;4.10;;
2610;SDS011;5612;51.134;17.058;2022-08-11T05:39:55;5.30;;;4.80;;
2610;SDS011;5612;51.134;17.058;2022-08-11T05:42:53;5.17;;;4.60;;
2610;SDS011;5612;51.134;17.058;2022-08-11T05:45:43;4.50;;;4.10;;
2610;SDS011;5612;51.134;17.058;2022-08-11T05:48:40;3.97;;;3.67;;
2610;SDS011;5612;51.134;17.058;2022-08-11T05:51:32;4.60;;;4.20;;
2610;SDS011;5612;51.134;17.058;2022-08-11T05:54:21;5.13;;;4.70;;
2610;SDS011;5612;51.134;17.058;2022-08-11T05:57:17;6.80;;;4.33;;
2610;SDS011;5612;51.134;17.058;2022-08-11T06:00:08;4.50;;;4.20;;
2610;SDS011;5612;51.134;17.058;2022-08-11T06:02:40;4.47;;;4.07;;
2610;SDS011;5612;51.134;17.058;2022-08-11T06:05:10;5.20;;;4.70;;
2610;SDS011;5612;51.134;17.058;2022-08-11T06:07:40;4.53;;;3.73;;
2610;SDS011;5612;51.134;17.058;2022-08-11T06:10:28;4.80;;;4.40;;
2610;SDS011;5612;51.134;17.058;2022-08-11T06:13:09;4.37;;;3.97;;
2610;SDS011;5612;51.134;17.058;2022-08-11T06:15:47;6.57;;;4.10;;
2610;SDS011;5612;51.134;17.058;2022-08-11T06:18:19;5.23;;;4.13;;
2610;SDS011;5612;51.134;17.058;2022-08-11T06:20:48;3.90;;;3.60;;
2610;SDS011;5612;51.134;17.058;2022-08-11T06:23:19;4.20;;;3.90;;
2610;SDS011;5612;51.134;17.058;2022-08-11T06:25:51;5.07;;;4.00;;
2610;SDS011;5612;51.134;17.058;2022-08-11T06:28:27;4.50;;;4.10;;
2610;SDS011;5612;51.134;17.058;2022-08-11T06:30:59;4.27;;;3.63;;
2610;SDS011;5612;51.134;17.058;2022-08-11T06:33:34;6.90;;;3.43;;
2610;SDS011;5612;51.134;17.058;2022-08-11T06:36:09;3.60;;;3.37;;
2610;SDS011;5612;51.134;17.058;2022-08-11T06:38:52;3.20;;;2.90;;
2610;SDS011;5612;51.134;17.058;2022-08-11T06:41:29;4.00;;;3.70;;
2610;SDS011;5612;51.134;17.058;2022-08-11T06:44:08;4.07;;;3.73;;
2610;SDS011;5612;51.134;17.058;2022-08-11T06:46:46;4.30;;;3.30;;
2610;SDS011;5612;51.134;17.058;2022-08-11T06:49:19;5.90;;;3.33;;
2610;SDS011;5612;51.134;17.058;2022-08-11T06:52:09;3.63;;;3.30;;
2610;SDS011;5612;51.134;17.058;2022-08-11T06:55:00;4.10;;;3.70;;
2610;SDS011;5612;51.134;17.058;2022-08-11T06:57:54;5.30;;;3.73;;
2610;SDS011;5612;51.134;17.058;2022-08-11T07:00:40;3.20;;;2.90;;
2610;SDS011;5612;51.134;17.058;2022-08-11T07:03:11;3.90;;;3.60;;
2610;SDS011;5612;51.134;17.058;2022-08-11T07:05:47;3.80;;;3.37;;
2610;SDS011;5612;51.134;17.058;2022-08-11T07:08:26;4.67;;;3.00;;
2610;SDS011;5612;51.134;17.058;2022-08-11T07:11:58;4.90;;;3.10;;
2610;SDS011;5612;51.134;17.058;2022-08-11T07:14:54;3.47;;;3.27;;
2610;SDS011;5612;51.134;17.058;2022-08-11T07:17:42;3.40;;;3.10;;
2610;SDS011;5612;51.134;17.058;2022-08-11T07:20:15;3.47;;;3.17;;
2610;SDS011;5612;51.134;17.058;2022-08-11T07:23:04;3.13;;;2.78;;
2610;SDS011;5612;51.134;17.058;2022-08-11T07:25:54;5.93;;;5.53;;
2610;SDS011;5612;51.134;17.058;2022-08-11T07:28:59;4.50;;;4.15;;
2610;SDS011;5612;51.134;17.058;2022-08-11T07:31:30;4.13;;;3.22;;
2610;SDS011;5612;51.134;17.058;2022-08-11T07:34:06;3.42;;;2.47;;
2610;SDS011;5612;51.134;17.058;2022-08-11T07:36:45;3.28;;;2.80;;
2610;SDS011;5612;51.134;17.058;2022-08-11T07:39:20;4.40;;;2.75;;
2610;SDS011;5612;51.134;17.058;2022-08-11T07:41:51;2.70;;;2.50;;
2610;SDS011;5612;51.134;17.058;2022-08-11T07:44:22;3.22;;;3.03;;
2610;SDS011;5612;51.134;17.058;2022-08-11T07:47:00;3.63;;;2.95;;
2610;SDS011;5612;51.134;17.058;2022-08-11T07:49:47;3.35;;;2.47;;
2610;SDS011;5612;51.134;17.058;2022-08-11T07:52:40;3.00;;;2.80;;
2610;SDS011;5612;51.134;17.058;2022-08-11T07:55:12;2.20;;;2.00;;
2610;SDS011;5612;51.134;17.058;2022-08-11T07:57:45;4.05;;;2.53;;
2610;SDS011;5612;51.134;17.058;2022-08-11T08:00:46;2.53;;;2.35;;
2610;SDS011;5612;51.134;17.058;2022-08-11T08:03:48;5.57;;;2.05;;
2610;SDS011;5612;51.134;17.058;2022-08-11T08:06:35;2.30;;;2.20;;
2610;SDS011;5612;51.134;17.058;2022-08-11T08:09:21;2.85;;;2.50;;
2610;SDS011;5612;51.134;17.058;2022-08-11T08:12:11;5.38;;;2.22;;
2610;SDS011;5612;51.134;17.058;2022-08-11T08:14:59;1.85;;;1.75;;
2610;SDS011;5612;51.134;17.058;2022-08-11T08:17:50;6.25;;;2.20;;
2610;SDS011;5612;51.134;17.058;2022-08-11T08:20:43;4.88;;;1.70;;
2610;SDS011;5612;51.134;17.058;2022-08-11T08:23:16;2.53;;;2.35;;
2610;SDS011;5612;51.134;17.058;2022-08-11T08:26:00;2.60;;;1.80;;
2610;SDS011;5612;51.134;17.058;2022-08-11T08:28:56;2.08;;;1.90;;
2610;SDS011;5612;51.134;17.058;2022-08-11T08:31:41;3.75;;;2.50;;
2610;SDS011;5612;51.134;17.058;2022-08-11T08:34:11;2.33;;;2.13;;
2610;SDS011;5612;51.134;17.058;2022-08-11T08:36:42;2.15;;;2.05;;
2610;SDS011;5612;51.134;17.058;2022-08-11T08:39:12;2.15;;;2.05;;
2610;SDS011;5612;51.134;17.058;2022-08-11T08:41:42;2.00;;;1.90;;
2610;SDS011;5612;51.134;17.058;2022-08-11T08:44:13;2.15;;;2.05;;
2610;SDS011;5612;51.134;17.058;2022-08-11T08:47:04;3.63;;;1.88;;
2610;SDS011;5612;51.134;17.058;2022-08-11T08:49:37;1.75;;;1.65;;
2610;SDS011;5612;51.134;17.058;2022-08-11T08:52:12;2.88;;;1.50;;
2610;SDS011;5612;51.134;17.058;2022-08-11T08:55:00;1.88;;;1.48;;
2610;SDS011;5612;51.134;17.058;2022-08-11T08:57:31;1.65;;;1.55;;
2610;SDS011;5612;51.134;17.058;2022-08-11T09:00:07;2.67;;;1.77;;
2610;SDS011;5612;51.134;17.058;2022-08-11T09:02:39;1.90;;;1.80;;
2610;SDS011;5612;51.134;17.058;2022-08-11T09:05:09;6.10;;;1.70;;
2610;SDS011;5612;51.134;17.058;2022-08-11T09:07:39;1.77;;;1.60;;
2610;SDS011;5612;51.134;17.058;2022-08-11T09:10:09;1.80;;;1.50;;
2610;SDS011;5612;51.134;17.058;2022-08-11T09:12:39;1.73;;;1.63;;
2610;SDS011;5612;51.134;17.058;2022-08-11T09:15:11;1.73;;;1.60;;
2610;SDS011;5612;51.134;17.058;2022-08-11T09:17:46;2.67;;;1.60;;
2610;SDS011;5612;51.134;17.058;2022-08-11T09:20:17;2.63;;;2.53;;
2610;SDS011;5612;51.134;17.058;2022-08-11T09:22:48;2.25;;;2.15;;
2610;SDS011;5612;51.134;17.058;2022-08-11T09:25:55;2.58;;;2.40;;
2610;SDS011;5612;51.134;17.058;2022-08-11T09:28:43;1.75;;;1.65;;
2610;SDS011;5612;51.134;17.058;2022-08-11T09:31:14;2.35;;;2.20;;
2610;SDS011;5612;51.134;17.058;2022-08-11T09:33:47;2.28;;;2.17;;
2610;SDS011;5612;51.134;17.058;2022-08-11T09:36:19;2.38;;;2.08;;
2610;SDS011;5612;51.134;17.058;2022-08-11T09:39:05;1.63;;;1.52;;
2610;SDS011;5612;51.134;17.058;2022-08-11T09:41:52;2.05;;;1.80;;
2610;SDS011;5612;51.134;17.058;2022-08-11T09:44:29;1.90;;;1.80;;
2610;SDS011;5612;51.134;17.058;2022-08-11T09:47:20;4.28;;;1.60;;
2610;SDS011;5612;51.134;17.058;2022-08-11T09:49:51;5.78;;;1.65;;
2610;SDS011;5612;51.134;17.058;2022-08-11T09:52:27;1.67;;;1.42;;
2610;SDS011;5612;51.134;17.058;2022-08-11T09:54:58;1.95;;;1.85;;
2610;SDS011;5612;51.134;17.058;2022-08-11T09:57:31;2.33;;;2.22;;
2610;SDS011;5612;51.134;17.058;2022-08-11T10:00:21;2.55;;;2.40;;
2610;SDS011;5612;51.134;17.058;2022-08-11T10:02:57;6.07;;;1.95;;
2610;SDS011;5612;51.134;17.058;2022-08-11T10:05:28;1.65;;;1.38;;
2610;SDS011;5612;51.134;17.058;2022-08-11T10:08:15;1.80;;;1.70;;
2610;SDS011;5612;51.134;17.058;2022-08-11T10:10:46;3.50;;;1.88;;
2610;SDS011;5612;51.134;17.058;2022-08-11T10:13:17;1.90;;;1.75;;
2610;SDS011;5612;51.134;17.058;2022-08-11T10:16:12;3.05;;;1.70;;
2610;SDS011;5612;51.134;17.058;2022-08-11T10:18:46;1.63;;;1.52;;
2610;SDS011;5612;51.134;17.058;2022-08-11T10:21:26;3.15;;;2.30;;
2610;SDS011;5612;51.134;17.058;2022-08-11T10:24:00;1.45;;;1.30;;
2610;SDS011;5612;51.134;17.058;2022-08-11T10:26:49;1.90;;;1.00;;
2610;SDS011;5612;51.134;17.058;2022-08-11T10:29:27;3.45;;;1.70;;
2610;SDS011;5612;51.134;17.058;2022-08-11T10:32:18;3.78;;;1.35;;
2610;SDS011;5612;51.134;17.058;2022-08-11T10:35:26;2.97;;;1.60;;
2610;SDS011;5612;51.134;17.058;2022-08-11T10:37:56;2.08;;;1.92;;
2610;SDS011;5612;51.134;17.058;2022-08-11T10:40:38;1.73;;;1.10;;
2610;SDS011;5612;51.134;17.058;2022-08-11T10:43:08;1.42;;;1.33;;
2610;SDS011;5612;51.134;17.058;2022-08-11T10:45:58;1.10;;;1.10;;
2610;SDS011;5612;51.134;17.058;2022-08-11T10:48:56;1.10;;;1.10;;
2610;SDS011;5612;51.134;17.058;2022-08-11T10:51:27;1.15;;;1.15;;
2610;SDS011;5612;51.134;17.058;2022-08-11T10:54:17;1.20;;;1.17;;
2610;SDS011;5612;51.134;17.058;2022-08-11T10:57:05;1.58;;;1.50;;
2610;SDS011;5612;51.134;17.058;2022-08-11T10:59:53;3.30;;;1.10;;
2610;SDS011;5612;51.134;17.058;2022-08-11T11:02:22;1.77;;;1.33;;
2610;SDS011;5612;51.134;17.058;2022-08-11T11:04:59;1.10;;;1.10;;
2610;SDS011;5612;51.134;17.058;2022-08-11T11:07:37;2.67;;;1.00;;
2610;SDS011;5612;51.134;17.058;2022-08-11T11:10:13;1.35;;;1.30;;
2610;SDS011;5612;51.134;17.058;2022-08-11T11:12:44;1.55;;;1.20;;
2610;SDS011;5612;51.134;17.058;2022-08-11T11:15:34;4.70;;;2.75;;
2610;SDS011;5612;51.134;17.058;2022-08-11T11:18:23;2.45;;;1.60;;
2610;SDS011;5612;51.134;17.058;2022-08-11T11:20:54;3.53;;;2.22;;
2610;SDS011;5612;51.134;17.058;2022-08-11T11:23:31;3.53;;;1.50;;
2610;SDS011;5612;51.134;17.058;2022-08-11T11:37:52;5.43;;;1.55;;
2610;SDS011;5612;51.134;17.058;2022-08-11T11:40:32;1.42;;;1.40;;
2610;SDS011;5612;51.134;17.058;2022-08-11T11:43:03;1.63;;;1.52;;
2610;SDS011;5612;51.134;17.058;2022-08-11T11:45:33;1.77;;;1.67;;
2610;SDS011;5612;51.134;17.058;2022-08-11T11:48:03;1.83;;;1.73;;
2610;SDS011;5612;51.134;17.058;2022-08-11T11:50:33;1.58;;;1.48;;
2610;SDS011;5612;51.134;17.058;2022-08-11T11:53:04;2.38;;;1.30;;
2610;SDS011;5612;51.134;17.058;2022-08-11T11:55:36;3.72;;;2.00;;
2610;SDS011;5612;51.134;17.058;2022-08-11T11:58:06;3.80;;;1.70;;
2610;SDS011;5612;51.134;17.058;2022-08-11T12:00:53;3.08;;;1.88;;
2610;SDS011;5612;51.134;17.058;2022-08-11T12:03:40;1.60;;;1.50;;
2610;SDS011;5612;51.134;17.058;2022-08-11T12:06:13;3.15;;;1.60;;
2610;SDS011;5612;51.134;17.058;2022-08-11T12:08:44;3.03;;;1.95;;
2610;SDS011;5612;51.134;17.058;2022-08-11T12:11:19;4.75;;;1.60;;
2610;SDS011;5612;51.134;17.058;2022-08-11T12:14:09;1.92;;;1.83;;
2610;SDS011;5612;51.134;17.058;2022-08-11T12:16:39;1.60;;;1.50;;
2610;SDS011;5612;51.134;17.058;2022-08-11T12:19:10;1.90;;;1.73;;
2610;SDS011;5612;51.134;17.058;2022-08-11T12:21:41;1.50;;;1.40;;
2610;SDS011;5612;51.134;17.058;2022-08-11T12:24:26;1.73;;;1.60;;
2610;SDS011;5612;51.134;17.058;2022-08-11T12:27:15;1.83;;;1.60;;
2610;SDS011;5612;51.134;17.058;2022-08-11T12:29:50;2.03;;;1.60;;
2610;SDS011;5612;51.134;17.058;2022-08-11T12:32:22;8.60;;;1.90;;
2610;SDS011;5612;51.134;17.058;2022-08-11T12:34:52;6.57;;;1.42;;
2610;SDS011;5612;51.134;17.058;2022-08-11T12:37:24;6.03;;;2.33;;
2610;SDS011;5612;51.134;17.058;2022-08-11T12:39:57;2.70;;;1.38;;
2610;SDS011;5612;51.134;17.058;2022-08-11T12:43:09;2.20;;;1.38;;
2610;SDS011;5612;51.134;17.058;2022-08-11T12:46:06;2.35;;;1.08;;
2610;SDS011;5612;51.134;17.058;2022-08-11T12:48:36;1.33;;;1.23;;
2610;SDS011;5612;51.134;17.058;2022-08-11T12:51:30;7.22;;;1.67;;
2610;SDS011;5612;51.134;17.058;2022-08-11T12:54:41;4.00;;;1.52;;
2610;SDS011;5612;51.134;17.058;2022-08-11T12:57:26;1.80;;;1.70;;
2610;SDS011;5612;51.134;17.058;2022-08-11T13:00:18;1.92;;;1.50;;
2610;SDS011;5612;51.134;17.058;2022-08-11T13:03:05;2.90;;;2.08;;
2610;SDS011;5612;51.134;17.058;2022-08-11T13:05:54;4.15;;;3.67;;
2610;SDS011;5612;51.134;17.058;2022-08-11T13:08:25;5.90;;;4.68;;
2610;SDS011;5612;51.134;17.058;2022-08-11T13:10:56;1.88;;;1.77;;
2610;SDS011;5612;51.134;17.058;2022-08-11T13:13:44;2.40;;;2.13;;
2610;SDS011;5612;51.134;17.058;2022-08-11T13:16:24;3.28;;;2.50;;
2610;SDS011;5612;51.134;17.058;2022-08-11T13:18:55;4.88;;;3.78;;
2610;SDS011;5612;51.134;17.058;2022-08-11T13:21:27;1.95;;;1.33;;
2610;SDS011;5612;51.134;17.058;2022-08-11T13:23:56;5.30;;;3.90;;
2610;SDS011;5612;51.134;17.058;2022-08-11T13:26:32;5.97;;;4.63;;
2610;SDS011;5612;51.134;17.058;2022-08-11T13:29:15;55.45;;;21.90;;
2610;SDS011;5612;51.134;17.058;2022-08-11T13:31:47;115.50;;;38.78;;
2610;SDS011;5612;51.134;17.058;2022-08-11T13:34:17;2.65;;;1.80;;
2610;SDS011;5612;51.134;17.058;2022-08-11T13:36:48;38.50;;;14.95;;
2610;SDS011;5612;51.134;17.058;2022-08-11T13:39:19;7.43;;;2.70;;
2610;SDS011;5612;51.134;17.058;2022-08-11T13:41:50;19.15;;;9.25;;
2610;SDS011;5612;51.134;17.058;2022-08-11T13:44:23;37.30;;;15.75;;
2610;SDS011;5612;51.134;17.058;2022-08-11T13:46:57;8.23;;;4.60;;
2610;SDS011;5612;51.134;17.058;2022-08-11T13:49:30;9.25;;;4.82;;
2610;SDS011;5612;51.134;17.058;2022-08-11T13:51:59;35.15;;;14.43;;
2610;SDS011;5612;51.134;17.058;2022-08-11T13:54:29;40.85;;;15.98;;
2610;SDS011;5612;51.134;17.058;2022-08-11T13:57:02;42.00;;;17.13;;
2610;SDS011;5612;51.134;17.058;2022-08-11T13:59:57;9.05;;;4.30;;
2610;SDS011;5612;51.134;17.058;2022-08-11T14:02:55;6.78;;;3.70;;
2610;SDS011;5612;51.134;17.058;2022-08-11T14:05:25;5.78;;;3.05;;
2610;SDS011;5612;51.134;17.058;2022-08-11T14:07:58;4.28;;;3.10;;
2610;SDS011;5612;51.134;17.058;2022-08-11T14:10:29;8.55;;;2.65;;
2610;SDS011;5612;51.134;17.058;2022-08-11T14:13:01;1.65;;;1.52;;
2610;SDS011;5612;51.134;17.058;2022-08-11T14:15:52;1.90;;;1.80;;
2610;SDS011;5612;51.134;17.058;2022-08-11T14:18:24;1.00;;;1.00;;
2610;SDS011;5612;51.134;17.058;2022-08-11T14:20:56;3.88;;;2.28;;
2610;SDS011;5612;51.134;17.058;2022-08-11T14:23:45;1.30;;;1.20;;
2610;SDS011;5612;51.134;17.058;2022-08-11T14:26:16;1.70;;;1.45;;
2610;SDS011;5612;51.134;17.058;2022-08-11T14:28:52;1.90;;;1.15;;
2610;SDS011;5612;51.134;17.058;2022-08-11T14:31:25;3.47;;;1.40;;
2610;SDS011;5612;51.134;17.058;2022-08-11T14:33:58;1.83;;;1.73;;
2610;SDS011;5612;51.134;17.058;2022-08-11T14:36:30;1.10;;;1.10;;
2610;SDS011;5612;51.134;17.058;2022-08-11T14:39:03;1.10;;;1.10;;
2610;SDS011;5612;51.134;17.058;2022-08-11T14:41:38;1.80;;;1.70;;
2610;SDS011;5612;51.134;17.058;2022-08-11T14:44:37;1.60;;;1.30;;
2610;SDS011;5612;51.134;17.058;2022-08-11T14:47:27;1.60;;;1.40;;
2610;SDS011;5612;51.134;17.058;2022-08-11T14:49:58;1.58;;;1.48;;
2610;SDS011;5612;51.134;17.058;2022-08-11T14:52:38;1.45;;;1.10;;
2610;SDS011;5612;51.134;17.058;2022-08-11T14:55:12;0.95;;;0.95;;
2610;SDS011;5612;51.134;17.058;2022-08-11T14:57:59;2.72;;;1.40;;
2610;SDS011;5612;51.134;17.058;2022-08-11T15:00:30;1.48;;;1.38;;
2610;SDS011;5612;51.134;17.058;2022-08-11T15:03:02;2.28;;;1.42;;
2610;SDS011;5612;51.134;17.058;2022-08-11T15:05:39;1.27;;;1.25;;
2610;SDS011;5612;51.134;17.058;2022-08-11T15:08:27;1.63;;;1.20;;
2610;SDS011;5612;51.134;17.058;2022-08-11T15:11:14;2.20;;;1.45;;
2610;SDS011;5612;51.134;17.058;2022-08-11T15:14:05;1.90;;;1.75;;
2610;SDS011;5612;51.134;17.058;2022-08-11T15:16:35;1.80;;;1.70;;
2610;SDS011;5612;51.134;17.058;2022-08-11T15:19:24;1.90;;;1.52;;
2610;SDS011;5612;51.134;17.058;2022-08-11T15:22:08;1.90;;;1.70;;
2610;SDS011;5612;51.134;17.058;2022-08-11T15:24:56;2.00;;;1.67;;
2610;SDS011;5612;51.134;17.058;2022-08-11T15:27:25;1.92;;;1.63;;
2610;SDS011;5612;51.134;17.058;2022-08-11T15:30:14;1.52;;;1.42;;
2610;SDS011;5612;51.134;17.058;2022-08-11T15:33:02;4.05;;;2.60;;
2610;SDS011;5612;51.134;17.058;2022-08-11T15:35:50;3.45;;;1.67;;
2610;SDS011;5612;51.134;17.058;2022-08-11T15:38:40;1.58;;;1.48;;
2610;SDS011;5612;51.134;17.058;2022-08-11T15:41:21;1.92;;;1.67;;
2610;SDS011;5612;51.134;17.058;2022-08-11T15:44:25;2.45;;;1.20;;
2610;SDS011;5612;51.134;17.058;2022-08-11T15:47:32;3.25;;;1.40;;
2610;SDS011;5612;51.134;17.058;2022-08-11T15:50:08;1.75;;;1.65;;
2610;SDS011;5612;51.134;17.058;2022-08-11T15:52:44;1.80;;;1.63;;
2610;SDS011;5612;51.134;17.058;2022-08-11T15:55:17;1.73;;;1.63;;
2610;SDS011;5612;51.134;17.058;2022-08-11T15:57:49;1.57;;;1.50;;
2610;SDS011;5612;51.134;17.058;2022-08-11T16:00:37;1.30;;;1.20;;
2610;SDS011;5612;51.134;17.058;2022-08-11T16:03:32;1.27;;;1.27;;
2610;SDS011;5612;51.134;17.058;2022-08-11T16:06:34;2.07;;;1.43;;
2610;SDS011;5612;51.134;17.058;2022-08-11T16:09:16;1.57;;;1.47;;
2610;SDS011;5612;51.134;17.058;2022-08-11T16:11:51;10.43;;;2.37;;
2610;SDS011;5612;51.134;17.058;2022-08-11T16:14:22;1.67;;;1.57;;
2610;SDS011;5612;51.134;17.058;2022-08-11T16:17:10;2.07;;;1.40;;
2610;SDS011;5612;51.134;17.058;2022-08-11T16:19:48;9.93;;;1.83;;
2610;SDS011;5612;51.134;17.058;2022-08-11T16:22:22;1.70;;;1.60;;
2610;SDS011;5612;51.134;17.058;2022-08-11T16:25:03;3.77;;;1.50;;
2610;SDS011;5612;51.134;17.058;2022-08-11T16:27:57;6.00;;;3.60;;
2610;SDS011;5612;51.134;17.058;2022-08-11T16:30:30;3.37;;;2.40;;
2610;SDS011;5612;51.134;17.058;2022-08-11T16:33:01;2.10;;;2.00;;
2610;SDS011;5612;51.134;17.058;2022-08-11T16:35:52;2.43;;;1.80;;
2610;SDS011;5612;51.134;17.058;2022-08-11T16:38:40;1.63;;;1.50;;
2610;SDS011;5612;51.134;17.058;2022-08-11T16:41:13;1.80;;;1.70;;
2610;SDS011;5612;51.134;17.058;2022-08-11T16:44:06;2.00;;;1.80;;
2610;SDS011;5612;51.134;17.058;2022-08-11T16:47:03;7.53;;;1.70;;
2610;SDS011;5612;51.134;17.058;2022-08-11T16:49:35;1.50;;;1.40;;
2610;SDS011;5612;51.134;17.058;2022-08-11T16:52:08;2.40;;;1.40;;
2610;SDS011;5612;51.134;17.058;2022-08-11T16:54:38;2.10;;;1.47;;
2610;SDS011;5612;51.134;17.058;2022-08-11T16:57:11;1.83;;;1.73;;
2610;SDS011;5612;51.134;17.058;2022-08-11T17:00:03;2.33;;;2.13;;
2610;SDS011;5612;51.134;17.058;2022-08-11T17:02:34;1.53;;;1.43;;
2610;SDS011;5612;51.134;17.058;2022-08-11T17:05:25;1.67;;;1.57;;
2610;SDS011;5612;51.134;17.058;2022-08-11T17:08:21;1.70;;;1.60;;
2610;SDS011;5612;51.134;17.058;2022-08-11T17:11:23;6.37;;;2.20;;
2610;SDS011;5612;51.134;17.058;2022-08-11T17:14:12;4.80;;;1.47;;
2610;SDS011;5612;51.134;17.058;2022-08-11T17:17:03;4.60;;;1.30;;
2610;SDS011;5612;51.134;17.058;2022-08-11T17:19:41;7.30;;;1.97;;
2610;SDS011;5612;51.134;17.058;2022-08-11T17:22:35;3.23;;;1.60;;
2610;SDS011;5612;51.134;17.058;2022-08-11T17:25:23;4.40;;;1.40;;
2610;SDS011;5612;51.134;17.058;2022-08-11T17:28:18;2.83;;;1.43;;
2610;SDS011;5612;51.134;17.058;2022-08-11T17:30:51;3.43;;;2.20;;
2610;SDS011;5612;51.134;17.058;2022-08-11T17:33:50;2.23;;;1.80;;